Time;durP1;ratioP1;P1;durP2;ratioP2;P2;SDS_P1;SDS_P2;PMS_P1;PMS_P2;Temp;Humidity;BMP_temperature;BMP_pressure;BME280_temperature;BME280_humidity;BME280_pressure;Samples;Min_cycle;Max_cycle;Signal;HPM_P1;HPM_P2
2022/05/08 00:00:31;;;;;;;;;;;13.30;99.90;;;;;;5045049;28;20429;-69
2022/05/08 00:02:58;;;;;;;;;;;13.30;99.90;;;;;;5055232;28;19925;-69
2022/05/08 00:05:25;;;;;;;;;;;13.20;99.90;;;;;;5051318;28;19925;-69
2022/05/08 00:07:52;;;;;;;;;;;13.10;99.90;;;;;;5050436;28;20445;-70
2022/05/08 00:10:19;;;;;;;;;;;13.00;99.90;;;;;;5050119;28;20019;-69
2022/05/08 00:12:49;;;;;;;;;;;13.00;99.90;;;;;;5051379;28;20361;-69
2022/05/08 00:15:16;;;;;;;;;;;12.90;99.90;;;;;;5046224;28;20012;-69
2022/05/08 00:17:44;;;;;;;;;;;12.90;99.90;;;;;;5050019;28;19972;-69
2022/05/08 00:20:12;;;;;;;;;;;12.70;99.90;;;;;;5050154;28;20012;-69
2022/05/08 00:22:45;;;;;;;;;;;12.60;99.90;;;;;;5051250;28;20032;-69
2022/05/08 00:25:12;;;;;;;;;;;12.40;99.90;;;;;;5051973;28;20016;-69
2022/05/08 00:27:38;;;;;;;;;;;12.40;99.90;;;;;;5050839;28;20419;-69
2022/05/08 00:30:05;;;;;;;;;;;12.30;99.90;;;;;;5048739;28;20013;-70
2022/05/08 00:32:32;;;;;;;;;;;12.20;99.90;;;;;;5050383;28;20007;-69
2022/05/08 00:34:59;;;;;;;;;;;12.20;99.90;;;;;;5044902;28;19932;-69
2022/05/08 00:37:25;;;;;;;;;;;12.30;99.90;;;;;;5046561;28;20016;-69
2022/05/08 00:39:52;;;;;;;;;;;12.40;99.90;;;;;;5051368;28;20012;-69
2022/05/08 00:42:19;;;;;;;;;;;12.40;99.90;;;;;;5050867;28;19939;-69
2022/05/08 00:44:48;;;;;;;;;;;12.40;99.90;;;;;;5050644;28;20015;-69
2022/05/08 00:47:15;;;;;;;;;;;12.40;99.90;;;;;;5047260;28;19925;-69
2022/05/08 00:49:42;;;;;;;;;;;12.40;99.90;;;;;;5040043;28;19960;-69
2022/05/08 00:52:09;;;;;;;;;;;12.30;99.90;;;;;;5050141;28;19925;-69
2022/05/08 00:54:38;;;;;;;;;;;12.30;99.90;;;;;;5047309;28;19952;-69
2022/05/08 00:57:06;;;;;;;;;;;12.20;99.90;;;;;;5050245;28;19971;-69
2022/05/08 00:59:33;;;;;;;;;;;12.10;99.90;;;;;;5051840;28;19925;-69
2022/05/08 01:02:00;;;;;;;;;;;12.00;99.90;;;;;;5049263;28;19929;-69
2022/05/08 01:04:27;;;;;;;;;;;11.90;99.90;;;;;;5048274;28;19960;-69
2022/05/08 01:06:53;;;;;;;;;;;11.80;99.90;;;;;;5047255;28;19936;-69
2022/05/08 01:09:20;;;;;;;;;;;11.70;99.90;;;;;;5048033;28;20467;-69
2022/05/08 01:11:46;;;;;;;;;;;11.60;99.90;;;;;;5050193;28;20394;-69
2022/05/08 01:14:13;;;;;;;;;;;11.50;99.90;;;;;;5050864;28;19935;-69
2022/05/08 01:16:40;;;;;;;;;;;11.40;99.90;;;;;;5047255;28;20012;-69
2022/05/08 01:19:10;;;;;;;;;;;11.30;99.90;;;;;;5050498;28;20383;-69
2022/05/08 01:21:41;;;;;;;;;;;11.20;99.90;;;;;;5050788;28;19932;-69
2022/05/08 01:24:08;;;;;;;;;;;11.20;99.90;;;;;;5049103;28;19925;-69
2022/05/08 01:26:35;;;;;;;;;;;11.10;99.90;;;;;;5048025;28;19925;-69
2022/05/08 01:29:02;;;;;;;;;;;11.10;99.90;;;;;;5042001;28;19924;-69
2022/05/08 01:31:32;;;;;;;;;;;11.00;99.90;;;;;;5048936;28;20011;-69
2022/05/08 01:33:59;;;;;;;;;;;11.00;99.90;;;;;;5048791;28;19925;-69
2022/05/08 01:36:26;;;;;;;;;;;11.00;99.90;;;;;;5049195;28;19931;-69
2022/05/08 01:38:52;;;;;;;;;;;11.00;99.90;;;;;;5048971;28;20015;-69
2022/05/08 01:41:22;;;;;;;;;;;11.10;99.90;;;;;;5048324;28;19938;-69
2022/05/08 01:43:49;;;;;;;;;;;11.10;99.90;;;;;;5048431;28;19931;-71
2022/05/08 01:46:16;;;;;;;;;;;11.00;99.90;;;;;;5047400;28;19924;-68
2022/05/08 01:48:42;;;;;;;;;;;11.00;99.90;;;;;;5047776;28;20371;-68
2022/05/08 01:51:12;;;;;;;;;;;11.00;99.90;;;;;;5050072;28;20415;-68
2022/05/08 01:53:39;;;;;;;;;;;10.90;99.90;;;;;;5049875;28;19925;-68
2022/05/08 01:56:07;;;;;;;;;;;10.80;99.90;;;;;;5052585;28;19924;-68
2022/05/08 01:58:34;;;;;;;;;;;10.80;99.90;;;;;;5048671;28;19929;-68
2022/05/08 02:01:04;;;;;;;;;;;10.70;99.90;;;;;;5047884;28;19931;-69
2022/05/08 02:03:31;;;;;;;;;;;10.80;99.90;;;;;;5048421;28;19955;-69
2022/05/08 02:06:00;;;;;;;;;;;10.70;99.90;;;;;;5046292;28;19929;-70
2022/05/08 02:08:27;;;;;;;;;;;10.80;99.90;;;;;;5049534;28;19944;-69
2022/05/08 02:10:57;;;;;;;;;;;10.80;99.90;;;;;;5048575;28;19932;-69
2022/05/08 02:13:23;;;;;;;;;;;10.90;99.90;;;;;;5049712;28;19931;-69
2022/05/08 02:15:50;;;;;;;;;;;10.90;99.90;;;;;;5047900;28;20501;-69
2022/05/08 02:18:19;;;;;;;;;;;10.90;99.90;;;;;;5043161;28;20493;-69
2022/05/08 02:20:45;;;;;;;;;;;10.80;99.90;;;;;;5047582;28;19925;-69
2022/05/08 02:23:12;;;;;;;;;;;10.80;99.90;;;;;;5075529;28;20016;-69
2022/05/08 02:25:39;;;;;;;;;;;10.80;99.90;;;;;;5048771;28;19924;-69
2022/05/08 02:28:06;;;;;;;;;;;10.80;99.90;;;;;;5048002;28;20015;-69
2022/05/08 02:30:32;;;;;;;;;;;10.80;99.90;;;;;;5052706;28;19928;-69
2022/05/08 02:33:00;;;;;;;;;;;10.70;99.90;;;;;;5053098;28;19945;-69
2022/05/08 02:35:27;;;;;;;;;;;10.70;99.90;;;;;;5053839;28;19940;-69
2022/05/08 02:37:54;;;;;;;;;;;10.80;99.90;;;;;;5048792;28;20020;-69
2022/05/08 02:40:23;;;;;;;;;;;10.70;99.90;;;;;;5051397;28;19936;-70
2022/05/08 02:42:50;;;;;;;;;;;10.70;99.90;;;;;;5052522;28;20904;-69
2022/05/08 02:45:18;;;;;;;;;;;10.60;99.90;;;;;;5048720;28;19931;-69
2022/05/08 02:47:45;;;;;;;;;;;10.60;99.90;;;;;;5050559;28;20451;-69
2022/05/08 02:50:11;;;;;;;;;;;10.60;99.90;;;;;;5050448;28;20468;-69
2022/05/08 02:52:39;;;;;;;;;;;10.60;99.90;;;;;;5052845;28;19960;-69
2022/05/08 03:00:39;;;;;;;;;;;10.50;99.90;;;;;;5051086;28;20390;-69
2022/05/08 03:03:06;;;;;;;;;;;10.50;99.90;;;;;;5057154;28;19925;-69
2022/05/08 03:05:36;;;;;;;;;;;10.50;99.90;;;;;;5046452;28;19931;-69
2022/05/08 03:08:04;;;;;;;;;;;10.60;99.90;;;;;;5052364;28;20302;-69
2022/05/08 03:13:17;;;;;;;;;;;10.80;99.90;;;;;;5051885;28;20008;-69
2022/05/08 03:15:44;;;;;;;;;;;10.80;99.90;;;;;;5052070;28;19954;-69
2022/05/08 03:18:11;;;;;;;;;;;11.00;99.90;;;;;;5052058;28;19935;-69
2022/05/08 03:20:37;;;;;;;;;;;11.00;99.90;;;;;;5046346;28;19925;-69
2022/05/08 03:23:04;;;;;;;;;;;11.00;99.90;;;;;;5053022;28;19971;-70
2022/05/08 03:25:31;;;;;;;;;;;11.10;99.90;;;;;;5046481;28;20343;-70
2022/05/08 03:27:58;;;;;;;;;;;11.10;99.90;;;;;;5051236;28;19925;-72
2022/05/08 03:30:25;;;;;;;;;;;11.10;99.90;;;;;;5051674;28;19925;-70
2022/05/08 03:32:52;;;;;;;;;;;11.10;99.90;;;;;;5051887;28;19932;-71
2022/05/08 03:35:21;;;;;;;;;;;11.10;99.90;;;;;;5045920;28;19931;-70
2022/05/08 03:37:48;;;;;;;;;;;11.10;99.90;;;;;;5043510;28;20045;-70
2022/05/08 03:40:25;;;;;;;;;;;11.10;99.90;;;;;;5046774;28;19931;-70
2022/05/08 03:42:52;;;;;;;;;;;11.20;99.90;;;;;;5049003;28;19929;-71
2022/05/08 03:45:19;;;;;;;;;;;11.20;99.90;;;;;;5050432;28;20016;-71
2022/05/08 03:47:51;;;;;;;;;;;11.20;99.90;;;;;;5048032;28;19964;-70
2022/05/08 03:50:21;;;;;;;;;;;11.10;99.90;;;;;;5051926;28;19925;-71
2022/05/08 03:52:48;;;;;;;;;;;11.10;99.90;;;;;;5051792;28;19975;-70
2022/05/08 03:55:18;;;;;;;;;;;11.10;99.90;;;;;;5051478;28;19931;-70
2022/05/08 03:57:45;;;;;;;;;;;11.10;99.90;;;;;;5051288;28;20385;-70
2022/05/08 04:00:12;;;;;;;;;;;11.10;99.90;;;;;;5081213;28;20032;-70
2022/05/08 04:02:39;;;;;;;;;;;11.20;99.90;;;;;;5049993;28;20048;-70
2022/05/08 04:05:07;;;;;;;;;;;11.20;99.90;;;;;;5051451;28;20023;-70
2022/05/08 04:07:33;;;;;;;;;;;11.30;99.90;;;;;;5052417;28;19925;-70
2022/05/08 04:10:00;;;;;;;;;;;11.40;99.90;;;;;;5051125;28;19939;-70
2022/05/08 04:12:28;;;;;;;;;;;11.40;99.90;;;;;;5051557;28;19925;-70
2022/05/08 04:14:55;;;;;;;;;;;11.40;99.90;;;;;;5049595;28;20334;-70
2022/05/08 04:17:21;;;;;;;;;;;11.50;99.90;;;;;;5047154;28;20007;-70
2022/05/08 04:19:48;;;;;;;;;;;11.50;99.90;;;;;;5050846;28;19935;-70
2022/05/08 04:25:00;;;;;;;;;;;11.60;99.90;;;;;;5049865;28;19925;-70
2022/05/08 04:27:27;;;;;;;;;;;11.80;99.90;;;;;;5050351;28;19963;-71
2022/05/08 04:29:53;;;;;;;;;;;11.80;99.90;;;;;;5051978;28;19929;-70
2022/05/08 04:32:20;;;;;;;;;;;11.90;99.90;;;;;;5051742;28;19931;-70
2022/05/08 04:34:49;;;;;;;;;;;11.90;99.90;;;;;;5052729;28;19925;-71
2022/05/08 04:37:15;;;;;;;;;;;12.00;99.90;;;;;;5052073;28;19924;-71
2022/05/08 04:39:42;;;;;;;;;;;12.00;99.90;;;;;;5050347;28;20011;-71
2022/05/08 04:42:09;;;;;;;;;;;12.20;99.90;;;;;;5052046;28;20388;-71
2022/05/08 04:44:35;;;;;;;;;;;12.20;99.90;;;;;;5051338;28;19924;-70
2022/05/08 04:47:02;;;;;;;;;;;12.20;99.90;;;;;;5050482;28;19955;-71
2022/05/08 04:49:29;;;;;;;;;;;12.30;99.90;;;;;;5052064;28;19931;-71
2022/05/08 04:51:56;;;;;;;;;;;12.30;99.90;;;;;;5050349;28;19929;-70
2022/05/08 04:54:24;;;;;;;;;;;12.40;99.90;;;;;;5051610;28;19968;-72
2022/05/08 04:56:52;;;;;;;;;;;12.50;99.90;;;;;;5047786;28;20763;-70
2022/05/08 04:59:18;;;;;;;;;;;12.50;99.90;;;;;;5047620;28;19964;-70
2022/05/08 05:01:45;;;;;;;;;;;12.60;99.90;;;;;;5045053;28;19931;-70
2022/05/08 05:04:12;;;;;;;;;;;12.70;99.90;;;;;;5054987;28;20429;-70
2022/05/08 05:06:40;;;;;;;;;;;12.80;99.90;;;;;;5048036;28;19979;-70
2022/05/08 05:09:07;;;;;;;;;;;12.90;99.90;;;;;;5079882;28;19925;-70
2022/05/08 05:11:34;;;;;;;;;;;13.40;99.90;;;;;;5043099;28;19933;-71
2022/05/08 05:14:08;;;;;;;;;;;14.10;99.90;;;;;;5121812;27;19916;-71
2022/05/08 05:16:36;;;;;;;;;;;14.80;99.90;;;;;;5095477;28;19931;-68
2022/05/08 05:19:04;;;;;;;;;;;15.30;99.90;;;;;;5101432;28;19930;-70
2022/05/08 05:21:31;;;;;;;;;;;15.90;99.90;;;;;;5097659;28;19930;-68
2022/05/08 05:23:58;;;;;;;;;;;16.20;99.90;;;;;;5101714;28;19971;-68
2022/05/08 05:26:25;;;;;;;;;;;16.40;99.90;;;;;;5100951;28;19925;-72
2022/05/08 05:28:51;;;;;;;;;;;16.80;99.90;;;;;;5103176;28;19932;-70
2022/05/08 05:31:18;;;;;;;;;;;17.20;99.90;;;;;;5098364;28;19970;-72
2022/05/08 05:33:46;;;;;;;;;;;17.70;99.90;;;;;;5100500;28;20038;-69
2022/05/08 05:36:13;;;;;;;;;;;18.00;99.90;;;;;;5090566;28;19935;-69
2022/05/08 05:38:40;;;;;;;;;;;18.20;99.90;;;;;;5098427;28;19932;-69
2022/05/08 05:41:07;;;;;;;;;;;18.50;99.90;;;;;;5099274;28;19931;-68
2022/05/08 05:43:34;;;;;;;;;;;18.50;99.90;;;;;;5107472;28;19924;-70
2022/05/08 05:48:48;;;;;;;;;;;19.20;99.90;;;;;;5101913;28;19932;-69
2022/05/08 05:51:15;;;;;;;;;;;19.60;99.90;;;;;;5097468;28;19938;-65
2022/05/08 05:53:42;;;;;;;;;;;19.40;99.90;;;;;;5102893;28;19971;-67
2022/05/08 05:56:11;;;;;;;;;;;19.20;99.90;;;;;;5096234;28;19924;-66
2022/05/08 05:58:38;;;;;;;;;;;18.80;99.90;;;;;;5104378;28;19960;-67
2022/05/08 06:01:07;;;;;;;;;;;18.60;99.90;;;;;;5089764;28;20007;-66
2022/05/08 06:03:34;;;;;;;;;;;18.50;99.90;;;;;;5101456;28;20046;-67
2022/05/08 06:06:00;;;;;;;;;;;18.90;99.90;;;;;;5101541;28;20325;-67
2022/05/08 06:08:27;;;;;;;;;;;19.60;99.90;;;;;;5101582;28;20462;-66
2022/05/08 06:10:54;;;;;;;;;;;19.90;99.90;;;;;;5103397;28;19928;-66
2022/05/08 06:13:21;;;;;;;;;;;20.30;99.90;;;;;;5098913;28;19934;-67
2022/05/08 06:15:48;;;;;;;;;;;20.50;99.90;;;;;;5100145;28;19930;-66
2022/05/08 06:18:15;;;;;;;;;;;20.70;99.90;;;;;;5101649;28;19982;-66
2022/05/08 06:20:42;;;;;;;;;;;20.80;99.90;;;;;;5125159;27;19931;-66
2022/05/08 06:23:08;;;;;;;;;;;21.00;99.90;;;;;;5089583;28;19924;-66
2022/05/08 06:25:35;;;;;;;;;;;21.30;99.90;;;;;;5084842;28;20549;-65
2022/05/08 06:28:02;;;;;;;;;;;21.20;99.90;;;;;;5082839;28;20009;-67
2022/05/08 06:30:28;;;;;;;;;;;21.30;99.90;;;;;;5092354;28;19999;-66
2022/05/08 06:32:55;;;;;;;;;;;21.00;99.90;;;;;;5081906;28;19932;-65
2022/05/08 06:35:37;;;;;;;;;;;21.50;99.90;;;;;;5086393;28;19924;-65
2022/05/08 06:38:03;;;;;;;;;;;21.70;99.90;;;;;;5093482;28;19924;-65
2022/05/08 06:40:30;;;;;;;;;;;21.40;99.90;;;;;;5079839;28;19942;-65
2022/05/08 06:42:56;;;;;;;;;;;21.10;99.90;;;;;;5084615;28;19933;-66
2022/05/08 06:45:25;;;;;;;;;;;21.00;99.90;;;;;;5086919;28;20422;-66
2022/05/08 06:47:54;;;;;;;;;;;21.20;99.90;;;;;;5086199;28;19928;-65
2022/05/08 06:50:22;;;;;;;;;;;21.00;99.90;;;;;;5086721;28;19924;-66
2022/05/08 06:52:48;;;;;;;;;;;21.30;99.90;;;;;;5088860;28;20011;-66
2022/05/08 06:55:15;;;;;;;;;;;21.60;99.90;;;;;;5095980;28;19924;-65
2022/05/08 06:57:42;;;;;;;;;;;21.70;99.90;;;;;;5089294;28;19932;-70
2022/05/08 07:02:57;;;;;;;;;;;22.00;99.90;;;;;;5081480;28;19960;-70
2022/05/08 07:05:24;;;;;;;;;;;22.00;99.90;;;;;;5087142;28;19967;-67
2022/05/08 07:07:50;;;;;;;;;;;22.00;99.90;;;;;;5081789;28;19967;-69
2022/05/08 07:10:17;;;;;;;;;;;22.50;99.90;;;;;;5083812;28;19950;-69
2022/05/08 07:12:43;;;;;;;;;;;22.60;99.90;;;;;;5090180;28;20033;-70
2022/05/08 07:15:10;;;;;;;;;;;22.30;99.90;;;;;;5087886;28;20603;-71
2022/05/08 07:17:37;;;;;;;;;;;21.90;99.90;;;;;;5084780;28;20027;-72
2022/05/08 07:20:04;;;;;;;;;;;21.80;99.90;;;;;;5105394;27;19923;-68
2022/05/08 07:22:33;;;;;;;;;;;21.80;99.90;;;;;;5081571;28;20533;-72
2022/05/08 07:24:59;;;;;;;;;;;21.60;99.90;;;;;;5085428;28;19982;-70
2022/05/08 07:27:26;;;;;;;;;;;21.80;99.90;;;;;;5083337;28;19933;-69
2022/05/08 07:29:53;;;;;;;;;;;22.60;99.90;;;;;;5082498;28;20022;-69
2022/05/08 07:32:19;;;;;;;;;;;23.10;99.90;;;;;;5090125;28;20956;-71
2022/05/08 07:37:32;;;;;;;;;;;23.10;99.90;;;;;;5085642;28;20031;-70
2022/05/08 07:39:58;;;;;;;;;;;23.20;99.90;;;;;;5082869;28;19959;-69
2022/05/08 07:42:26;;;;;;;;;;;23.10;99.90;;;;;;5087341;28;19928;-70
2022/05/08 07:44:52;;;;;;;;;;;23.20;99.90;;;;;;5078865;28;19977;-72
2022/05/08 07:47:21;;;;;;;;;;;23.20;99.90;;;;;;5078783;28;19977;-70
2022/05/08 07:49:50;;;;;;;;;;;23.50;99.90;;;;;;5088021;28;19954;-72
2022/05/08 07:52:16;;;;;;;;;;;23.40;99.90;;;;;;5082520;28;19950;-77
2022/05/08 07:54:46;;;;;;;;;;;22.50;99.90;;;;;;5080411;28;20030;-72
2022/05/08 07:57:13;;;;;;;;;;;22.30;99.90;;;;;;5088710;28;19938;-70
2022/05/08 07:59:39;;;;;;;;;;;22.00;99.90;;;;;;5087186;28;19925;-71
2022/05/08 08:02:07;;;;;;;;;;;22.00;99.90;;;;;;5093764;28;20428;-65
2022/05/08 08:04:36;;;;;;;;;;;22.90;99.90;;;;;;5080898;28;19930;-70
2022/05/08 08:07:06;;;;;;;;;;;23.10;99.90;;;;;;5083540;28;19952;-73
2022/05/08 08:09:33;;;;;;;;;;;23.00;99.90;;;;;;5079262;28;20621;-70
2022/05/08 08:12:00;;;;;;;;;;;23.30;99.90;;;;;;5088495;28;19946;-70
2022/05/08 08:14:27;;;;;;;;;;;23.70;99.90;;;;;;5081753;28;19924;-71
2022/05/08 08:17:13;;;;;;;;;;;23.80;99.90;;;;;;5091399;28;20444;-69
2022/05/08 08:19:49;;;;;;;;;;;23.90;99.90;;;;;;5085193;28;19924;-71
2022/05/08 08:22:16;;;;;;;;;;;24.40;99.90;;;;;;5087025;28;21563;-68
2022/05/08 08:24:42;;;;;;;;;;;24.20;99.90;;;;;;5088684;28;19934;-68
2022/05/08 08:27:09;;;;;;;;;;;24.40;99.90;;;;;;5086634;28;19935;-70
2022/05/08 08:29:35;;;;;;;;;;;24.50;99.90;;;;;;5084448;28;19924;-74
2022/05/08 08:32:02;;;;;;;;;;;24.30;99.90;;;;;;5089849;28;20023;-68
2022/05/08 08:34:29;;;;;;;;;;;23.80;99.90;;;;;;5092734;28;19974;-68
2022/05/08 08:36:56;;;;;;;;;;;23.70;99.90;;;;;;5081887;28;19963;-70
2022/05/08 08:39:23;;;;;;;;;;;23.60;99.90;;;;;;5075395;28;19924;-70
2022/05/08 08:41:59;;;;;;;;;;;23.90;99.90;;;;;;5082580;28;19924;-69
2022/05/08 08:49:59;;;;;;;;;;;24.40;99.90;;;;;;5078103;28;19924;-71
2022/05/08 08:52:27;;;;;;;;;;;24.50;99.90;;;;;;5083766;28;20014;-70
2022/05/08 08:54:54;;;;;;;;;;;25.10;99.90;;;;;;5078731;28;19929;-70
2022/05/08 08:57:20;;;;;;;;;;;25.20;99.90;;;;;;5074538;28;20015;-72
2022/05/08 08:59:47;;;;;;;;;;;25.20;99.90;;;;;;5116376;27;19931;-70
2022/05/08 09:02:15;;;;;;;;;;;24.90;99.90;;;;;;5081583;28;19924;-71
2022/05/08 09:04:44;;;;;;;;;;;25.00;99.90;;;;;;5089693;28;20291;-73
2022/05/08 09:07:32;;;;;;;;;;;24.90;99.90;;;;;;5085636;28;19932;-72
2022/05/08 09:10:28;;;;;;;;;;;24.50;99.90;;;;;;5079425;28;20011;-71
2022/05/08 09:12:54;;;;;;;;;;;24.00;99.90;;;;;;5100455;28;20027;-71
2022/05/08 09:15:26;;;;;;;;;;;24.20;99.90;;;;;;5092433;28;19928;-72
2022/05/08 09:17:54;;;;;;;;;;;24.70;99.90;;;;;;5096126;28;20010;-68
2022/05/08 09:20:29;;;;;;;;;;;25.50;99.90;;;;;;5087015;28;19951;-70
2022/05/08 09:22:59;;;;;;;;;;;25.50;99.90;;;;;;5082913;28;19924;-73
2022/05/08 09:25:43;;;;;;;;;;;26.00;99.90;;;;;;5094007;28;19924;-71
2022/05/08 09:28:30;;;;;;;;;;;25.70;99.90;;;;;;5092228;28;19944;-68
2022/05/08 09:30:58;;;;;;;;;;;25.90;99.90;;;;;;5075459;28;19924;-70
2022/05/08 09:33:33;;;;;;;;;;;26.10;99.90;;;;;;5080703;28;20293;-69
2022/05/08 09:36:01;;;;;;;;;;;26.20;99.90;;;;;;5078622;28;20424;-69
2022/05/08 09:38:41;;;;;;;;;;;26.60;99.90;;;;;;5086975;28;19928;-70
2022/05/08 09:41:08;;;;;;;;;;;27.00;99.90;;;;;;5069234;28;19924;-69
2022/05/08 09:43:34;;;;;;;;;;;27.60;99.90;;;;;;5083312;28;19928;-72
2022/05/08 09:46:02;;;;;;;;;;;27.60;99.90;;;;;;5078588;28;19989;-69
2022/05/08 09:48:37;;;;;;;;;;;27.60;99.40;;;;;;5082792;28;20346;-68
2022/05/08 09:51:04;;;;;;;;;;;27.50;99.50;;;;;;5083040;28;19931;-70
2022/05/08 09:53:31;;;;;;;;;;;28.10;99.40;;;;;;5083991;28;19939;-70
2022/05/08 09:55:59;;;;;;;;;;;28.30;98.50;;;;;;5072503;28;19971;-65
2022/05/08 09:58:26;;;;;;;;;;;28.70;98.00;;;;;;5080176;28;19925;-70
2022/05/08 10:00:54;;;;;;;;;;;28.20;98.20;;;;;;5079349;28;19928;-71
2022/05/08 10:03:21;;;;;;;;;;;27.20;98.60;;;;;;5085869;28;19924;-70
2022/05/08 10:05:49;;;;;;;;;;;26.90;99.30;;;;;;5080799;28;19936;-69
2022/05/08 10:08:17;;;;;;;;;;;26.60;99.10;;;;;;5081191;28;20002;-71
2022/05/08 10:13:57;;;;;;;;;;;25.40;99.90;;;;;;5086207;28;20456;-73
2022/05/08 10:16:42;;;;;;;;;;;25.40;99.90;;;;;;5085801;28;19931;-73
2022/05/08 10:19:17;;;;;;;;;;;25.40;98.80;;;;;;5086008;28;19931;-74
2022/05/08 10:21:56;;;;;;;;;;;25.50;99.60;;;;;;5083793;28;20415;-72
2022/05/08 10:24:26;;;;;;;;;;;26.00;99.90;;;;;;5080976;28;19934;-71
2022/05/08 10:27:11;;;;;;;;;;;26.20;99.70;;;;;;5085766;28;19924;-69
2022/05/08 10:29:38;;;;;;;;;;;26.00;99.00;;;;;;5081202;28;19928;-73
2022/05/08 10:32:10;;;;;;;;;;;25.70;99.90;;;;;;5087789;28;19924;-68
2022/05/08 10:34:39;;;;;;;;;;;26.10;99.90;;;;;;5084421;28;20540;-67
2022/05/08 10:37:11;;;;;;;;;;;26.50;99.90;;;;;;5085528;28;19924;-70
2022/05/08 10:39:42;;;;;;;;;;;27.00;99.30;;;;;;5110857;27;20395;-71
2022/05/08 10:42:24;;;;;;;;;;;27.00;98.90;;;;;;5088550;28;19924;-72
2022/05/08 10:44:51;;;;;;;;;;;27.40;98.40;;;;;;5081068;28;19928;-72
2022/05/08 10:47:33;;;;;;;;;;;27.50;98.00;;;;;;5083356;28;19958;-71
2022/05/08 10:50:01;;;;;;;;;;;27.50;98.50;;;;;;5087660;28;19925;-71
2022/05/08 10:52:31;;;;;;;;;;;27.40;98.40;;;;;;5088623;28;19935;-72
2022/05/08 10:54:58;;;;;;;;;;;27.60;98.40;;;;;;5088824;28;19924;-69
2022/05/08 10:57:29;;;;;;;;;;;27.20;98.80;;;;;;5114283;27;19961;-69
2022/05/08 10:59:56;;;;;;;;;;;27.20;98.80;;;;;;5083094;28;19924;-72
2022/05/08 11:02:42;;;;;;;;;;;27.40;98.70;;;;;;5084406;28;19924;-72
2022/05/08 11:05:16;;;;;;;;;;;27.30;97.80;;;;;;5092859;28;19924;-73
2022/05/08 11:07:53;;;;;;;;;;;27.50;97.70;;;;;;5094646;28;20018;-69
2022/05/08 11:10:26;;;;;;;;;;;27.20;97.60;;;;;;5092579;28;19942;-68
2022/05/08 11:12:54;;;;;;;;;;;27.60;97.60;;;;;;5081332;28;19928;-69
2022/05/08 11:15:21;;;;;;;;;;;27.30;97.30;;;;;;5082858;28;19935;-70
2022/05/08 11:18:01;;;;;;;;;;;27.10;97.90;;;;;;5111205;27;20313;-70
2022/05/08 11:20:29;;;;;;;;;;;26.80;97.10;;;;;;5085728;28;19963;-69
2022/05/08 11:22:56;;;;;;;;;;;26.40;97.60;;;;;;5088258;28;20323;-68
2022/05/08 11:25:23;;;;;;;;;;;26.60;98.00;;;;;;5087664;28;19932;-72
2022/05/08 11:27:53;;;;;;;;;;;26.90;98.00;;;;;;5093803;28;19924;-67
2022/05/08 11:30:29;;;;;;;;;;;27.10;96.80;;;;;;5092890;28;20011;-71
2022/05/08 11:36:12;;;;;;;;;;;27.30;96.30;;;;;;5085417;28;19933;-71
2022/05/08 11:38:41;;;;;;;;;;;27.20;96.20;;;;;;5091784;28;20375;-72
2022/05/08 11:41:09;;;;;;;;;;;27.00;96.10;;;;;;5082166;28;19997;-69
2022/05/08 11:43:43;;;;;;;;;;;27.10;95.60;;;;;;5093344;28;19960;-68
2022/05/08 11:46:15;;;;;;;;;;;27.50;95.80;;;;;;5082842;28;20391;-71
2022/05/08 11:48:49;;;;;;;;;;;27.50;95.40;;;;;;5088356;28;20375;-72
2022/05/08 11:51:21;;;;;;;;;;;27.40;95.00;;;;;;5081975;28;19957;-69
2022/05/08 11:53:49;;;;;;;;;;;27.00;94.70;;;;;;5103141;28;19933;-70
2022/05/08 11:56:38;;;;;;;;;;;26.90;95.20;;;;;;5089282;28;19924;-69
2022/05/08 11:59:14;;;;;;;;;;;26.90;95.50;;;;;;5086730;28;19932;-70
2022/05/08 12:01:47;;;;;;;;;;;27.20;95.20;;;;;;5082976;28;19931;-69
2022/05/08 12:04:30;;;;;;;;;;;27.20;94.80;;;;;;5084019;28;20355;-73
2022/05/08 12:06:59;;;;;;;;;;;26.80;94.00;;;;;;5085723;28;20379;-71
2022/05/08 12:09:27;;;;;;;;;;;26.80;94.90;;;;;;5083705;28;20013;-70
2022/05/08 12:11:53;;;;;;;;;;;27.20;94.80;;;;;;5083086;28;19932;-70
2022/05/08 12:14:30;;;;;;;;;;;27.30;94.20;;;;;;5082031;28;19928;-72
2022/05/08 12:17:03;;;;;;;;;;;27.60;94.10;;;;;;5076571;28;19928;-69
2022/05/08 12:19:32;;;;;;;;;;;27.50;94.80;;;;;;5084359;28;19928;-70
2022/05/08 12:22:15;;;;;;;;;;;27.80;94.50;;;;;;5079455;28;19930;-70
2022/05/08 12:24:43;;;;;;;;;;;27.90;94.60;;;;;;5082292;28;20434;-68
2022/05/08 12:27:09;;;;;;;;;;;28.10;94.70;;;;;;5085602;28;19928;-69
2022/05/08 12:29:36;;;;;;;;;;;27.50;93.90;;;;;;5085486;28;19963;-69
2022/05/08 12:32:03;;;;;;;;;;;27.10;95.10;;;;;;5087018;28;20356;-69
2022/05/08 12:34:30;;;;;;;;;;;27.10;95.30;;;;;;5084735;28;19970;-69
2022/05/08 12:36:57;;;;;;;;;;;27.40;95.50;;;;;;5078558;28;20466;-70
2022/05/08 12:39:26;;;;;;;;;;;27.70;94.80;;;;;;5075980;28;19925;-68
2022/05/08 12:41:52;;;;;;;;;;;27.90;93.80;;;;;;5089613;28;19966;-68
2022/05/08 12:44:19;;;;;;;;;;;27.50;94.40;;;;;;5089341;28;19930;-68
2022/05/08 12:46:48;;;;;;;;;;;26.80;94.30;;;;;;5086224;28;19924;-68
2022/05/08 12:49:15;;;;;;;;;;;26.40;95.00;;;;;;5085219;28;19939;-68
2022/05/08 12:51:42;;;;;;;;;;;26.20;94.30;;;;;;5086147;28;19928;-68
2022/05/08 12:54:09;;;;;;;;;;;26.10;94.10;;;;;;5084065;28;19950;-68
2022/05/08 12:56:36;;;;;;;;;;;26.10;93.50;;;;;;5082139;28;19924;-67
2022/05/08 13:01:51;;;;;;;;;;;25.90;95.10;;;;;;5082858;28;19925;-68
2022/05/08 13:04:18;;;;;;;;;;;25.90;94.80;;;;;;5085368;28;19928;-70
2022/05/08 13:06:46;;;;;;;;;;;26.20;95.20;;;;;;5080428;28;19935;-70
2022/05/08 13:09:13;;;;;;;;;;;26.60;94.40;;;;;;5079332;27;19929;-69
2022/05/08 13:11:40;;;;;;;;;;;26.90;94.10;;;;;;5094883;28;20345;-67
2022/05/08 13:14:07;;;;;;;;;;;26.40;94.10;;;;;;5084026;28;19931;-67
2022/05/08 13:16:34;;;;;;;;;;;25.60;94.10;;;;;;5092376;28;19928;-67
2022/05/08 13:19:02;;;;;;;;;;;25.00;95.20;;;;;;5073883;28;19928;-67
2022/05/08 13:21:32;;;;;;;;;;;25.40;95.00;;;;;;5086870;28;19928;-67
2022/05/08 13:24:01;;;;;;;;;;;25.30;94.60;;;;;;5095263;28;19934;-67
2022/05/08 13:26:28;;;;;;;;;;;25.40;94.50;;;;;;5076603;28;19931;-67
2022/05/08 13:28:55;;;;;;;;;;;25.70;94.80;;;;;;5082227;28;20383;-66
2022/05/08 13:31:21;;;;;;;;;;;26.20;93.70;;;;;;5077091;28;19925;-67
2022/05/08 13:33:48;;;;;;;;;;;26.30;94.60;;;;;;5080728;28;19970;-68
2022/05/08 13:36:15;;;;;;;;;;;26.90;94.10;;;;;;5091840;28;19927;-68
2022/05/08 13:38:45;;;;;;;;;;;27.80;93.50;;;;;;5090142;28;19965;-66
2022/05/08 13:41:14;;;;;;;;;;;27.80;93.60;;;;;;5083591;27;19974;-68
2022/05/08 13:43:41;;;;;;;;;;;27.20;93.00;;;;;;5082272;28;19931;-70
2022/05/08 13:46:08;;;;;;;;;;;26.60;93.60;;;;;;5087934;28;19924;-68
2022/05/08 13:48:38;;;;;;;;;;;26.40;94.00;;;;;;5087698;28;20302;-68
2022/05/08 13:51:05;;;;;;;;;;;26.40;94.10;;;;;;5092468;28;19963;-66
2022/05/08 13:53:34;;;;;;;;;;;27.10;93.80;;;;;;5088056;28;19955;-67
2022/05/08 13:56:02;;;;;;;;;;;27.80;93.70;;;;;;5089876;28;19932;-66
2022/05/08 13:58:30;;;;;;;;;;;28.00;92.90;;;;;;5096919;28;20442;-66
2022/05/08 14:00:59;;;;;;;;;;;28.00;92.60;;;;;;5094370;28;19938;-68
2022/05/08 14:03:28;;;;;;;;;;;27.90;92.60;;;;;;5099559;28;20327;-67
2022/05/08 14:05:55;;;;;;;;;;;27.90;92.10;;;;;;5114818;27;20310;-67
2022/05/08 14:08:23;;;;;;;;;;;28.30;92.70;;;;;;5090736;28;19928;-67
2022/05/08 14:10:50;;;;;;;;;;;28.50;92.50;;;;;;5090774;28;20437;-72
2022/05/08 14:13:17;;;;;;;;;;;28.50;92.90;;;;;;5088880;28;19931;-73
2022/05/08 14:15:46;;;;;;;;;;;28.70;92.70;;;;;;5082590;28;19932;-71
2022/05/08 14:18:13;;;;;;;;;;;28.60;92.40;;;;;;5085991;28;20011;-71
2022/05/08 14:20:40;;;;;;;;;;;28.60;92.10;;;;;;5092339;28;20599;-70
2022/05/08 14:23:07;;;;;;;;;;;28.60;91.90;;;;;;5082030;28;20790;-70
2022/05/08 14:25:34;;;;;;;;;;;28.80;92.40;;;;;;5090628;28;19930;-70
2022/05/08 14:28:01;;;;;;;;;;;28.50;92.50;;;;;;5082751;28;19931;-68
2022/05/08 14:30:28;;;;;;;;;;;28.20;92.70;;;;;;5091515;28;19997;-68
2022/05/08 14:36:01;;;;;;;;;;;28.70;92.80;;;;;;5090841;28;20018;-69
2022/05/08 14:38:31;;;;;;;;;;;28.90;92.90;;;;;;5090613;28;20776;-68
2022/05/08 14:40:58;;;;;;;;;;;29.50;92.40;;;;;;5083505;28;19924;-73
2022/05/08 14:43:25;;;;;;;;;;;29.60;92.30;;;;;;5099175;28;19924;-69
2022/05/08 14:45:51;;;;;;;;;;;29.40;92.90;;;;;;5085359;28;19944;-75
2022/05/08 14:48:18;;;;;;;;;;;29.40;93.30;;;;;;5090444;28;19929;-70
2022/05/08 14:50:45;;;;;;;;;;;29.10;93.10;;;;;;5093934;28;19930;-72
2022/05/08 14:53:13;;;;;;;;;;;29.50;93.30;;;;;;5094802;28;20778;-74
2022/05/08 14:55:41;;;;;;;;;;;29.50;93.50;;;;;;5091781;28;19932;-71
2022/05/08 14:58:07;;;;;;;;;;;29.20;93.50;;;;;;5091924;28;20446;-70
2022/05/08 15:00:34;;;;;;;;;;;29.10;93.70;;;;;;5087558;28;19940;-74